createdAt,value
2023-05-23T00:00:11.541Z,16.38
2023-05-23T00:02:40.099Z,16.36
2023-05-23T00:05:09.959Z,16.32
2023-05-23T00:07:56.411Z,16.31
2023-05-23T00:10:25.083Z,16.30
2023-05-23T00:12:53.829Z,16.29
2023-05-23T00:15:22.607Z,16.27
2023-05-23T00:17:51.380Z,16.26
2023-05-23T00:20:21.312Z,16.27
2023-05-23T00:22:51.107Z,16.25
2023-05-23T00:25:22.353Z,16.27
2023-05-23T00:27:50.702Z,16.28
2023-05-23T00:30:19.663Z,16.30
2023-05-23T00:32:48.401Z,16.32
2023-05-23T00:35:17.131Z,16.32
2023-05-23T00:37:45.559Z,16.30
2023-05-23T00:40:15.520Z,16.30
2023-05-23T00:42:43.929Z,16.27
2023-05-23T00:45:13.504Z,16.26
2023-05-23T00:47:43.146Z,16.30
2023-05-23T00:50:14.737Z,16.32
2023-05-23T00:52:44.791Z,16.29
2023-05-23T00:55:15.625Z,16.28
2023-05-23T00:57:44.934Z,16.29
2023-05-23T01:00:15.544Z,16.31
2023-05-23T01:02:51.368Z,16.32
2023-05-23T01:05:22.842Z,16.31
2023-05-23T01:07:52.981Z,16.31
2023-05-23T01:10:28.605Z,16.32
2023-05-23T01:13:14.691Z,16.33
2023-05-23T01:15:47.949Z,16.32
2023-05-23T01:18:20.591Z,16.32
2023-05-23T01:20:56.113Z,16.30
2023-05-23T01:23:57.269Z,16.27
2023-05-23T01:26:36.331Z,16.27
2023-05-23T01:29:16.478Z,16.23
2023-05-23T01:31:47.715Z,16.22
2023-05-23T01:34:18.974Z,16.22
2023-05-23T01:36:48.632Z,16.22
2023-05-23T01:39:17.163Z,16.20
2023-05-23T01:41:45.873Z,16.22
2023-05-23T01:44:16.025Z,16.19
2023-05-23T01:46:45.485Z,16.11
2023-05-23T01:49:15.621Z,16.08
2023-05-23T01:51:47.465Z,16.05
2023-05-23T01:54:19.934Z,16.03
2023-05-23T01:56:49.971Z,16.00
2023-05-23T01:59:19.890Z,15.94
2023-05-23T02:01:51.121Z,15.76
2023-05-23T02:04:20.039Z,15.59
2023-05-23T02:06:48.908Z,15.50
2023-05-23T02:09:17.461Z,15.43
2023-05-23T02:11:45.975Z,15.39
2023-05-23T02:14:14.326Z,15.39
2023-05-23T02:16:44.185Z,15.39
2023-05-23T02:19:12.701Z,15.43
2023-05-23T02:21:41.210Z,15.41
2023-05-23T02:24:09.986Z,15.37
2023-05-23T02:26:38.703Z,15.30
2023-05-23T02:29:07.571Z,15.25
2023-05-23T02:31:36.481Z,15.21
2023-05-23T02:34:06.988Z,15.17
2023-05-23T02:36:37.275Z,15.16
2023-05-23T02:39:06.345Z,15.14
2023-05-23T02:41:35.092Z,15.11
2023-05-23T02:44:03.516Z,15.07
2023-05-23T02:46:31.848Z,15.02
2023-05-23T02:49:00.593Z,14.97
2023-05-23T02:51:31.635Z,14.93
2023-05-23T02:54:00.371Z,14.87
2023-05-23T02:56:29.268Z,14.77
2023-05-23T02:58:57.632Z,14.68
2023-05-23T03:01:26.188Z,14.63
2023-05-23T03:03:54.654Z,14.64
2023-05-23T03:06:23.107Z,14.64
2023-05-23T03:08:52.928Z,14.59
2023-05-23T03:11:22.744Z,14.44
2023-05-23T03:13:51.151Z,14.31
2023-05-23T03:16:19.692Z,14.21
2023-05-23T03:18:48.103Z,14.11
2023-05-23T03:21:16.451Z,14.02
2023-05-23T03:23:44.946Z,13.88
2023-05-23T03:26:15.081Z,13.78
2023-05-23T03:28:43.444Z,13.68
2023-05-23T03:31:11.930Z,13.62
2023-05-23T03:33:40.743Z,13.62
2023-05-23T03:36:09.604Z,13.60
2023-05-23T03:38:38.676Z,13.56
2023-05-23T03:41:07.602Z,13.55
2023-05-23T03:43:37.692Z,13.54
2023-05-23T03:46:06.526Z,13.53
2023-05-23T03:48:35.093Z,13.51
2023-05-23T03:51:03.689Z,13.52
2023-05-23T03:53:32.227Z,13.52
2023-05-23T03:56:00.534Z,13.50
2023-05-23T03:58:28.878Z,13.49
2023-05-23T04:01:01.200Z,13.48
2023-05-23T04:03:33.223Z,13.46
2023-05-23T04:06:02.298Z,13.50
2023-05-23T04:08:34.139Z,13.51
2023-05-23T04:11:02.982Z,13.49
2023-05-23T04:13:31.790Z,13.52
2023-05-23T04:16:05.982Z,13.53
2023-05-23T04:18:34.817Z,13.50
2023-05-23T04:21:03.396Z,13.47
2023-05-23T04:23:31.960Z,13.46
2023-05-23T04:26:00.254Z,13.43
2023-05-23T04:28:31.648Z,13.39
2023-05-23T04:31:02.910Z,13.35
2023-05-23T04:33:31.611Z,13.35
2023-05-23T04:36:00.014Z,13.37
2023-05-23T04:38:28.391Z,13.41
2023-05-23T04:40:58.061Z,13.40
2023-05-23T04:43:29.340Z,13.41
2023-05-23T04:45:58.291Z,13.39
2023-05-23T04:48:28.344Z,13.41
2023-05-23T04:50:57.581Z,13.40
2023-05-23T04:53:26.103Z,13.38
2023-05-23T04:55:54.715Z,13.40
2023-05-23T04:58:23.548Z,13.41
2023-05-23T05:00:52.061Z,13.39
2023-05-23T05:03:20.852Z,13.39
2023-05-23T05:05:50.574Z,13.41
2023-05-23T05:08:20.055Z,13.48
2023-05-23T05:10:48.545Z,13.53
2023-05-23T05:13:17.053Z,13.58
2023-05-23T05:15:45.519Z,13.65
2023-05-23T05:18:14.208Z,13.72
2023-05-23T05:20:42.950Z,13.76
2023-05-23T05:23:12.757Z,13.77
2023-05-23T05:25:41.690Z,13.80
2023-05-23T05:28:10.312Z,13.80
2023-05-23T05:30:39.600Z,13.77
2023-05-23T05:33:09.001Z,13.72
2023-05-23T05:35:38.608Z,13.66
2023-05-23T05:38:08.557Z,13.62
2023-05-23T05:40:39.003Z,13.55
2023-05-23T05:43:08.376Z,13.44
2023-05-23T05:45:37.232Z,13.34
2023-05-23T05:48:06.493Z,13.29
2023-05-23T05:50:35.334Z,13.20
2023-05-23T05:53:03.973Z,13.09
2023-05-23T05:55:32.713Z,13.06
2023-05-23T05:58:02.772Z,13.03
2023-05-23T06:00:31.676Z,13.00
2023-05-23T06:03:00.205Z,13.04
2023-05-23T06:05:28.647Z,13.09
2023-05-23T06:07:57.054Z,13.15
2023-05-23T06:10:26.078Z,13.19
2023-05-23T06:12:54.677Z,13.23
2023-05-23T06:15:24.642Z,13.23
2023-05-23T06:17:53.641Z,13.29
2023-05-23T06:20:22.135Z,13.35
2023-05-23T06:22:50.860Z,13.39
2023-05-23T06:25:19.653Z,13.42
2023-05-23T06:27:48.413Z,13.45
2023-05-23T06:30:17.604Z,13.48
2023-05-23T06:32:47.515Z,13.54
2023-05-23T06:35:16.241Z,13.60
2023-05-23T06:37:46.079Z,13.59
2023-05-23T06:40:14.776Z,13.62
2023-05-23T06:42:44.045Z,13.67
2023-05-23T06:45:15.722Z,13.70
2023-05-23T06:47:48.251Z,13.72
2023-05-23T06:50:19.884Z,13.74
2023-05-23T06:52:48.691Z,13.78
2023-05-23T06:55:19.634Z,13.75
2023-05-23T06:57:51.901Z,13.72
2023-05-23T07:00:21.593Z,13.68
2023-05-23T07:02:51.811Z,13.68
2023-05-23T07:05:20.445Z,13.72
2023-05-23T07:07:48.872Z,13.80
2023-05-23T07:10:17.465Z,13.92
2023-05-23T07:12:45.782Z,14.05
2023-05-23T07:15:15.130Z,14.12
2023-05-23T07:17:43.904Z,14.15
2023-05-23T07:20:14.925Z,14.14
2023-05-23T07:22:43.689Z,14.13
2023-05-23T07:25:12.405Z,14.10
2023-05-23T07:27:41.602Z,14.10
2023-05-23T07:30:11.194Z,14.18
2023-05-23T07:32:39.595Z,14.31
2023-05-23T07:35:09.317Z,14.48
2023-05-23T07:37:39.417Z,14.49
2023-05-23T07:40:10.595Z,14.54
2023-05-23T07:42:39.452Z,14.57
2023-05-23T07:45:09.734Z,14.55
2023-05-23T07:47:38.832Z,14.60
2023-05-23T07:50:09.953Z,14.67
2023-05-23T07:52:39.906Z,14.80
2023-05-23T07:55:10.386Z,15.01
2023-05-23T07:57:39.320Z,15.17
2023-05-23T08:00:10.174Z,15.37
2023-05-23T08:02:38.901Z,15.47
2023-05-23T08:05:08.686Z,15.52
2023-05-23T08:07:42.059Z,15.51
2023-05-23T08:10:12.779Z,15.55
2023-05-23T08:12:41.299Z,15.69
2023-05-23T08:15:11.648Z,15.87
2023-05-23T08:17:40.910Z,15.98
2023-05-23T08:20:12.089Z,16.14
2023-05-23T08:22:41.197Z,16.19
2023-05-23T08:25:11.582Z,16.24
2023-05-23T08:27:40.090Z,16.25
2023-05-23T08:30:10.811Z,16.20
2023-05-23T08:32:39.698Z,16.18
2023-05-23T08:35:09.633Z,16.13
2023-05-23T08:37:38.817Z,16.07
2023-05-23T08:40:13.317Z,15.99
2023-05-23T08:42:42.024Z,16.03
2023-05-23T08:45:12.183Z,16.15
2023-05-23T08:47:44.218Z,16.26
2023-05-23T08:50:14.476Z,16.52
2023-05-23T08:52:49.781Z,16.68
2023-05-23T08:55:20.234Z,16.62
2023-05-23T08:57:48.795Z,16.46
2023-05-23T09:00:18.470Z,16.39
2023-05-23T09:02:47.894Z,16.53
2023-05-23T09:05:16.830Z,16.57
2023-05-23T09:07:48.643Z,16.82
2023-05-23T09:10:21.176Z,17.04
2023-05-23T09:12:50.199Z,17.03
2023-05-23T09:15:18.665Z,17.17
2023-05-23T09:17:47.396Z,17.42
2023-05-23T09:20:17.970Z,17.56
2023-05-23T09:22:48.758Z,17.53
2023-05-23T09:25:19.032Z,17.40
2023-05-23T09:27:48.253Z,17.33
2023-05-23T09:30:17.606Z,17.12
2023-05-23T09:33:04.657Z,17.11
2023-05-23T09:35:34.201Z,17.07
2023-05-23T09:38:02.750Z,17.05
2023-05-23T09:40:34.746Z,17.02
2023-05-23T09:43:07.838Z,17.03
2023-05-23T09:45:36.586Z,17.17
2023-05-23T09:48:14.655Z,17.36
2023-05-23T09:50:43.308Z,17.62
2023-05-23T09:53:12.145Z,17.83
2023-05-23T09:55:43.360Z,17.88
2023-05-23T09:58:12.654Z,17.77
2023-05-23T10:00:42.584Z,17.60
2023-05-23T10:03:13.904Z,17.42
2023-05-23T10:05:47.609Z,17.32
2023-05-23T10:08:20.791Z,17.55
2023-05-23T10:12:02.874Z,17.91
2023-05-23T10:14:32.417Z,17.81
2023-05-23T10:17:10.646Z,17.91
2023-05-23T10:19:45.839Z,18.11
2023-05-23T10:22:15.959Z,18.10
2023-05-23T10:24:46.808Z,18.01
2023-05-23T10:27:17.391Z,17.86
2023-05-23T10:29:46.997Z,17.79
2023-05-23T10:32:16.596Z,17.72
2023-05-23T10:34:58.964Z,17.75
2023-05-23T10:37:34.629Z,17.92
2023-05-23T10:40:08.926Z,18.03
2023-05-23T10:42:50.596Z,18.06
2023-05-23T10:45:21.153Z,18.02
2023-05-23T10:47:51.216Z,17.96
2023-05-23T10:50:34.201Z,18.03
2023-05-23T10:53:03.683Z,18.29
2023-05-23T10:55:36.921Z,18.64
2023-05-23T10:58:16.446Z,18.57
2023-05-23T11:00:57.146Z,18.43
2023-05-23T11:03:38.110Z,18.36
2023-05-23T11:06:09.355Z,18.37
2023-05-23T11:08:48.954Z,18.39
2023-05-23T11:11:17.649Z,18.20
2023-05-23T11:14:03.839Z,18.01
2023-05-23T11:16:36.071Z,18.03
2023-05-23T11:19:30.064Z,18.29
2023-05-23T11:22:01.284Z,18.51
2023-05-23T11:24:51.006Z,18.55
2023-05-23T11:27:21.281Z,18.53
2023-05-23T11:30:05.398Z,18.71
2023-05-23T11:32:34.411Z,18.85
2023-05-23T11:35:03.301Z,18.72
2023-05-23T11:37:32.740Z,18.71
2023-05-23T11:40:02.202Z,18.77
2023-05-23T11:42:31.074Z,19.08
2023-05-23T11:45:01.008Z,19.29
2023-05-23T11:47:29.442Z,19.33
2023-05-23T11:49:57.996Z,19.16
2023-05-23T11:52:27.293Z,19.35
2023-05-23T11:54:58.025Z,19.69
2023-05-23T11:57:29.156Z,19.87
2023-05-23T12:00:00.512Z,20.07
2023-05-23T12:02:30.399Z,20.21
2023-05-23T12:04:59.065Z,20.03
2023-05-23T12:07:27.711Z,19.73
2023-05-23T12:09:57.798Z,19.94
2023-05-23T12:12:26.793Z,20.60
2023-05-23T12:14:57.697Z,20.92
2023-05-23T12:17:27.943Z,20.63
2023-05-23T12:19:56.591Z,20.87
2023-05-23T12:22:25.752Z,21.01
2023-05-23T12:24:56.778Z,20.67
2023-05-23T12:27:31.552Z,20.11
2023-05-23T12:30:10.973Z,19.58
2023-05-23T12:32:43.896Z,19.94
2023-05-23T12:35:14.289Z,20.36
2023-05-23T12:37:43.159Z,20.25
2023-05-23T12:40:14.651Z,20.48
2023-05-23T12:42:52.482Z,21.20
2023-05-23T12:45:21.484Z,21.35
2023-05-23T12:47:53.981Z,21.00
2023-05-23T12:50:23.002Z,20.29
2023-05-23T12:52:51.474Z,19.70
2023-05-23T12:55:20.310Z,20.07
2023-05-23T12:57:48.755Z,21.16
2023-05-23T13:00:19.804Z,21.92
2023-05-23T13:02:48.339Z,22.27
2023-05-23T13:05:18.798Z,22.61
2023-05-23T13:07:47.288Z,23.15
2023-05-23T13:10:16.045Z,23.33
2023-05-23T13:12:44.822Z,22.88
2023-05-23T13:15:13.883Z,21.80
2023-05-23T13:17:44.394Z,21.64
2023-05-23T13:20:18.311Z,22.00
2023-05-23T13:22:46.826Z,21.30
2023-05-23T13:25:15.669Z,20.72
2023-05-23T13:27:44.153Z,20.40
2023-05-23T13:30:13.343Z,20.26
2023-05-23T13:32:41.891Z,20.07
2023-05-23T13:35:11.326Z,20.89
2023-05-23T13:37:41.524Z,21.97
2023-05-23T13:40:14.223Z,22.27
2023-05-23T13:42:42.912Z,22.71
2023-05-23T13:45:11.970Z,23.25
2023-05-23T13:47:40.424Z,23.91
2023-05-23T13:50:10.899Z,24.73
2023-05-23T13:52:44.099Z,25.54
2023-05-23T13:55:14.414Z,25.43
2023-05-23T13:57:43.068Z,24.55
2023-05-23T14:00:13.081Z,24.29
2023-05-23T14:02:41.682Z,23.91
2023-05-23T14:05:11.077Z,24.31
2023-05-23T14:07:41.415Z,24.72
2023-05-23T14:10:11.919Z,24.76
2023-05-23T14:12:40.502Z,25.51
2023-05-23T14:15:11.360Z,25.55
2023-05-23T14:17:39.880Z,25.32
2023-05-23T14:20:09.906Z,25.72
2023-05-23T14:22:40.257Z,25.63
2023-05-23T14:25:10.463Z,24.80
2023-05-23T14:27:40.298Z,24.69
2023-05-23T14:30:10.703Z,25.95
2023-05-23T14:32:42.143Z,25.99
2023-05-23T14:35:12.538Z,26.36
2023-05-23T14:37:42.833Z,27.04
2023-05-23T14:40:11.810Z,27.47
2023-05-23T14:42:40.556Z,27.75
2023-05-23T14:45:10.133Z,27.96
2023-05-23T14:47:42.197Z,27.63
2023-05-23T14:50:12.254Z,26.88
2023-05-23T14:52:42.281Z,25.91
2023-05-23T14:55:10.818Z,26.55
2023-05-23T14:57:40.293Z,27.01
2023-05-23T15:00:11.809Z,26.05
2023-05-23T15:02:40.415Z,25.05
2023-05-23T15:05:10.114Z,25.97
2023-05-23T15:07:39.355Z,27.28
2023-05-23T15:10:09.922Z,28.12
2023-05-23T15:12:39.380Z,27.52
2023-05-23T15:15:09.459Z,27.74
2023-05-23T15:17:39.426Z,27.93
2023-05-23T15:20:10.344Z,27.83
2023-05-23T15:22:40.583Z,28.34
2023-05-23T15:25:11.804Z,28.94
2023-05-23T15:27:40.555Z,28.03
2023-05-23T15:30:10.592Z,27.64
2023-05-23T15:32:39.229Z,27.88
2023-05-23T15:35:09.714Z,27.13
2023-05-23T15:37:38.909Z,26.28
2023-05-23T15:40:10.849Z,26.58
2023-05-23T15:42:39.524Z,27.17
2023-05-23T15:45:09.509Z,26.89
2023-05-23T15:47:38.836Z,26.35
2023-05-23T15:50:14.362Z,26.13
2023-05-23T15:52:43.213Z,25.24
2023-05-23T15:55:13.031Z,25.29
2023-05-23T15:57:41.765Z,24.03
2023-05-23T16:00:12.103Z,23.17
2023-05-23T16:02:41.083Z,23.89
2023-05-23T16:05:10.165Z,23.29
2023-05-23T16:07:38.850Z,22.82
2023-05-23T16:10:08.972Z,23.33
2023-05-23T16:12:39.012Z,24.22
2023-05-23T16:15:09.975Z,25.35
2023-05-23T16:17:38.964Z,26.54
2023-05-23T16:20:18.555Z,25.83
2023-05-23T16:22:47.635Z,24.34
2023-05-23T16:25:16.000Z,23.87
2023-05-23T16:27:45.818Z,23.82
2023-05-23T16:30:14.751Z,24.76
2023-05-23T16:32:43.260Z,26.10
2023-05-23T16:35:12.164Z,26.66
2023-05-23T16:37:40.636Z,25.41
2023-05-23T16:40:10.582Z,25.44
2023-05-23T16:42:39.068Z,26.36
2023-05-23T16:45:14.496Z,26.66
2023-05-23T16:47:42.912Z,26.83
2023-05-23T16:50:12.862Z,27.29
2023-05-23T16:52:41.202Z,27.80
2023-05-23T16:55:09.997Z,28.16
2023-05-23T16:57:39.156Z,28.40
2023-05-23T17:00:13.882Z,28.63
2023-05-23T17:02:42.521Z,26.93
2023-05-23T17:05:11.383Z,26.07
2023-05-23T17:07:39.986Z,26.59
2023-05-23T17:10:10.790Z,26.30
2023-05-23T17:12:39.244Z,25.51
2023-05-23T17:15:11.580Z,25.57
2023-05-23T17:17:40.154Z,26.51
2023-05-23T17:20:10.873Z,27.09
2023-05-23T17:22:39.448Z,27.07
2023-05-23T17:25:10.000Z,26.16
2023-05-23T17:27:38.589Z,26.04
2023-05-23T17:30:14.749Z,26.16
2023-05-23T17:32:43.657Z,24.71
2023-05-23T17:35:12.172Z,23.74
2023-05-23T17:37:43.441Z,23.26
2023-05-23T17:40:13.255Z,23.58
2023-05-23T17:42:43.342Z,23.92
2023-05-23T17:45:14.047Z,24.08
2023-05-23T17:47:42.546Z,24.47
2023-05-23T17:50:13.090Z,24.54
2023-05-23T17:52:41.880Z,24.49
2023-05-23T17:55:11.333Z,24.32
2023-05-23T17:57:39.820Z,23.88
2023-05-23T18:00:11.825Z,23.12
2023-05-23T18:02:42.876Z,22.95
2023-05-23T18:05:11.631Z,23.15
2023-05-23T18:07:40.050Z,22.80
2023-05-23T18:10:10.335Z,22.14
2023-05-23T18:12:38.978Z,21.11
2023-05-23T18:15:11.271Z,20.02
2023-05-23T18:17:41.706Z,19.42
2023-05-23T18:20:11.352Z,18.57
2023-05-23T18:22:41.416Z,18.08
2023-05-23T18:25:10.799Z,18.39
2023-05-23T18:27:39.205Z,18.27
2023-05-23T18:30:10.064Z,18.39
2023-05-23T18:32:40.353Z,18.54
2023-05-23T18:35:10.739Z,18.15
2023-05-23T18:37:39.967Z,17.69
2023-05-23T18:40:10.448Z,17.66
2023-05-23T18:42:39.015Z,17.58
2023-05-23T18:45:09.868Z,17.32
2023-05-23T18:47:40.199Z,16.80
2023-05-23T18:50:10.008Z,16.29
2023-05-23T18:52:39.101Z,15.92
2023-05-23T18:55:09.515Z,15.61
2023-05-23T18:57:38.445Z,15.33
2023-05-23T19:00:09.152Z,15.04
2023-05-23T19:02:41.938Z,14.76
2023-05-23T19:05:12.575Z,14.52
2023-05-23T19:07:41.182Z,14.32
2023-05-23T19:10:10.729Z,14.17
2023-05-23T19:12:40.095Z,14.06
2023-05-23T19:15:12.050Z,14.00
2023-05-23T19:17:41.816Z,13.96
2023-05-23T19:20:13.874Z,13.92
2023-05-23T19:22:50.989Z,13.88
2023-05-23T19:25:21.077Z,13.79
2023-05-23T19:27:49.740Z,13.67
2023-05-23T19:30:18.552Z,13.52
2023-05-23T19:32:47.099Z,13.44
2023-05-23T19:35:17.455Z,13.39
2023-05-23T19:37:46.456Z,13.33
2023-05-23T19:40:14.970Z,13.28
2023-05-23T19:42:43.433Z,13.19
2023-05-23T19:45:15.183Z,13.05
2023-05-23T19:47:43.804Z,12.96
2023-05-23T19:50:13.031Z,12.89
2023-05-23T19:52:43.473Z,12.86
2023-05-23T19:55:12.156Z,12.89
2023-05-23T19:57:41.165Z,12.94
2023-05-23T20:00:11.644Z,12.98
2023-05-23T20:02:40.082Z,12.99
2023-05-23T20:05:10.190Z,12.99
2023-05-23T20:07:39.740Z,12.98
2023-05-23T20:10:10.901Z,12.90
2023-05-23T20:12:39.485Z,12.80
2023-05-23T20:15:09.990Z,12.70
2023-05-23T20:17:38.746Z,12.62
2023-05-23T20:20:09.594Z,12.51
2023-05-23T20:22:38.823Z,12.42
2023-05-23T20:25:10.494Z,12.33
2023-05-23T20:27:42.484Z,12.25
2023-05-23T20:30:13.195Z,12.17
2023-05-23T20:32:44.773Z,12.09
2023-05-23T20:35:13.280Z,12.04
2023-05-23T20:37:44.059Z,11.97
2023-05-23T20:40:14.932Z,11.91
2023-05-23T20:42:45.067Z,11.86
2023-05-23T20:45:13.941Z,11.79
2023-05-23T20:47:43.110Z,11.76
2023-05-23T20:50:13.441Z,11.70
2023-05-23T20:52:43.074Z,11.63
2023-05-23T20:55:14.247Z,11.59
2023-05-23T20:57:42.716Z,11.52
2023-05-23T21:00:13.103Z,11.48
2023-05-23T21:02:42.774Z,11.46
2023-05-23T21:05:12.761Z,11.42
2023-05-23T21:07:41.719Z,11.38
2023-05-23T21:10:10.886Z,11.33
2023-05-23T21:12:41.342Z,11.32
2023-05-23T21:15:11.458Z,11.26
2023-05-23T21:17:39.947Z,11.23
2023-05-23T21:20:10.754Z,11.19
2023-05-23T21:22:39.218Z,11.16
2023-05-23T21:25:08.772Z,11.13
2023-05-23T21:27:37.459Z,11.10
2023-05-23T21:30:09.405Z,11.07
2023-05-23T21:32:38.344Z,11.04
2023-05-23T21:35:08.664Z,11.01
2023-05-23T21:37:37.515Z,10.96
2023-05-23T21:40:08.902Z,10.94
2023-05-23T21:42:37.559Z,10.92
2023-05-23T21:45:10.562Z,10.89
2023-05-23T21:47:39.076Z,10.87
2023-05-23T21:50:09.642Z,10.85
2023-05-23T21:52:38.598Z,10.83
2023-05-23T21:55:08.108Z,10.79
2023-05-23T21:57:36.992Z,10.76
2023-05-23T22:00:12.814Z,10.73
2023-05-23T22:02:41.932Z,10.70
2023-05-23T22:05:11.397Z,10.66
2023-05-23T22:07:40.015Z,10.63
2023-05-23T22:10:10.493Z,10.59
2023-05-23T22:12:39.022Z,10.54
2023-05-23T22:15:12.843Z,10.51
2023-05-23T22:17:43.631Z,10.47
2023-05-23T22:20:14.858Z,10.42
2023-05-23T22:22:43.516Z,10.39
2023-05-23T22:25:12.151Z,10.35
2023-05-23T22:27:40.707Z,10.34
2023-05-23T22:30:11.962Z,10.31
2023-05-23T22:32:40.445Z,10.28
2023-05-23T22:35:10.218Z,10.23
2023-05-23T22:37:39.037Z,10.18
2023-05-23T22:40:11.172Z,10.15
2023-05-23T22:42:40.063Z,10.12
2023-05-23T22:45:11.528Z,10.11
2023-05-23T22:47:41.700Z,10.10
2023-05-23T22:50:14.088Z,10.07
2023-05-23T22:52:42.624Z,10.05
2023-05-23T22:55:11.696Z,10.03
2023-05-23T22:57:40.044Z,10.01
2023-05-23T23:00:13.725Z,9.99
2023-05-23T23:02:45.061Z,9.95
2023-05-23T23:05:13.959Z,9.93
2023-05-23T23:07:42.346Z,9.90
2023-05-23T23:10:11.447Z,9.87
2023-05-23T23:12:40.692Z,9.86
2023-05-23T23:15:11.620Z,9.84
2023-05-23T23:17:40.647Z,9.83
2023-05-23T23:20:12.794Z,9.85
2023-05-23T23:22:41.560Z,9.88
2023-05-23T23:25:11.113Z,9.90
2023-05-23T23:27:39.840Z,9.89
2023-05-23T23:30:11.178Z,9.89
2023-05-23T23:32:39.644Z,9.87
2023-05-23T23:35:08.880Z,9.88
2023-05-23T23:37:37.978Z,9.90
2023-05-23T23:40:08.465Z,9.91
2023-05-23T23:42:37.386Z,9.89
2023-05-23T23:45:07.207Z,9.88
2023-05-23T23:47:37.375Z,9.89
2023-05-23T23:50:07.354Z,9.92
2023-05-23T23:52:37.184Z,9.91
2023-05-23T23:55:07.886Z,9.89
2023-05-23T23:57:36.428Z,9.91
